Gas Grouper — V7TZ2 — position and weather

sailwx.info

Track history (hours):
 
Tides and Currents Weather Stations Pressure Air Temp Water Temp Dewpoint Dewpoint Depression Visibility Wind Speed Wind Dir Waves Ship Positions

Gas Grouper

Last reported at 2016-Aug-26 10:06 UTC. Time now 2016-Aug-26 12:00 UTC.
Position N 40°46' E 028°51'.

Length 174 m; draft 6.7 m.

Type: Ship (hazmat cat D). MMSI: 538003910.

Date/timePositionNaut miles runAvg speedWind from/ knotsBaromVisibWave heightAir tempDewpointWater temp
2016-Aug-26 10:06N 40°46' E 028°51'1 1.2
2016-Aug-26 09:13N 40°47' E 028°52'1 1.1
2016-Aug-26 08:19N 40°47' E 028°53'1 1.1
2016-Aug-26 07:32N 40°48' E 028°54'4 4.0
2016-Aug-26 06:33N 40°48' E 028°49'  
2016-Aug-23 12:33N 36°16' E 014°49'1312.7
2016-Aug-23 11:33N 36°20' E 014°34'1312.5
2016-Aug-23 10:33N 36°24' E 014°19'1312.5
2016-Aug-23 09:33N 36°27' E 014°04'1212.4
2016-Aug-23 08:33N 36°30' E 013°49'19813.0
2016-Aug-22 17:17N 37°31' E 009°53'50712.4
2016-Aug-21 00:23N 36°34' W 000°37'1112.7
2016-Aug-20 23:30N 36°31' W 000°51'1313.2
2016-Aug-20 22:32N 36°29' W 001°06'1413.5
2016-Aug-20 21:32N 36°26' W 001°23'2613.2
2016-Aug-20 19:33N 36°21' W 001°55'1312.9
2016-Aug-20 18:33N 36°19' W 002°10'1312.5
2016-Aug-20 17:31N 36°18' W 002°26'1212.8
2016-Aug-20 16:33N 36°16' W 002°42'1413.9
2016-Aug-20 15:33N 36°15' W 002°59'1414.0
2016-Aug-20 14:33N 36°13' W 003°16'9314.5
2016-Aug-20 08:10N 36°01' W 005°10'813.7
2016-Aug-20 07:34N 35°59' W 005°20'1915.4
2016-Aug-20 06:17N 35°55' W 005°43'1115.7
2016-Aug-20 05:33N 35°55' W 005°58'21911.4
2016-Aug-19 10:25N 37°44' W 009°55'1512.9
2016-Aug-19 09:15N 37°58' W 009°59'1113.0
2016-Aug-19 08:24N 38°09' W 010°02'1113.1
2016-Aug-19 07:34N 38°20' W 010°05'1313.0
2016-Aug-19 06:33N 38°33' W 010°09'1312.7
2016-Aug-19 05:33N 38°45' W 010°11'1712.9
2016-Aug-19 04:12N 39°03' W 010°12'912.5
2016-Aug-19 03:30N 39°12' W 010°12'1312.9
2016-Aug-19 02:30N 39°24' W 010°11'1212.8
2016-Aug-19 01:33N 39°37' W 010°12'1312.7
2016-Aug-19 00:33N 39°49' W 010°12'1912.7
2016-Aug-18 23:05N 40°08' W 010°11'1012.6
2016-Aug-18 22:19N 40°17' W 010°11'1012.4
2016-Aug-18 21:33N 40°27' W 010°12'51912.6
2016-Aug-17 04:29N 48°35' W 006°03'1212.0
2016-Aug-17 03:31N 48°45' W 005°55'1111.6
2016-Aug-17 02:33N 48°54' W 005°46'1111.3
2016-Aug-17 01:33N 49°00' W 005°31'1111.4
2016-Aug-17 00:33N 49°06' W 005°16'1212.4
2016-Aug-16 23:33N 49°12' W 005°00'1313.5
2016-Aug-16 22:33N 49°19' W 004°43'1414.2
2016-Aug-16 21:33N 49°27' W 004°24'1414.2
2016-Aug-16 20:34N 49°34' W 004°05'1313.5
2016-Aug-16 19:33N 49°41' W 003°47'1312.6
2016-Aug-16 18:33N 49°47' W 003°31'1211.8
2016-Aug-16 17:33N 49°53' W 003°15'1211.7
2016-Aug-16 16:33N 49°58' W 002°58'1212.4
2016-Aug-16 15:33N 50°02' W 002°40'1313.4
2016-Aug-16 14:33N 50°05' W 002°20'1514.8
2016-Aug-16 13:33N 50°09' W 001°57'1615.7
2016-Aug-16 12:33N 50°14' W 001°34'1615.9
2016-Aug-16 11:33N 50°18' W 001°10'1514.9
2016-Aug-16 10:34N 50°22' W 000°47'  
Track history (hours):
 
Tides and Currents Weather Stations Pressure Air Temp Water Temp Dewpoint Dewpoint Depression Visibility Wind Speed Wind Dir Waves Ship Positions

Gas Grouper

Last reported at 2016-Aug-26 10:06 UTC. Time now 2016-Aug-26 12:00 UTC.
Position N 40°46' E 028°51'.

Length 174 m; draft 6.7 m.

Type: Ship (hazmat cat D). MMSI: 538003910.

Date/timePositionNaut miles runAvg speedWind from/ knotsBaromVisibWave heightAir tempDewpointWater temp
2016-Aug-26 10:06N 40°46' E 028°51'1 1.2
2016-Aug-26 09:13N 40°47' E 028°52'1 1.1
2016-Aug-26 08:19N 40°47' E 028°53'1 1.1
2016-Aug-26 07:32N 40°48' E 028°54'4 4.0
2016-Aug-26 06:33N 40°48' E 028°49'  
2016-Aug-23 12:33N 36°16' E 014°49'1312.7
2016-Aug-23 11:33N 36°20' E 014°34'1312.5
2016-Aug-23 10:33N 36°24' E 014°19'1312.5
2016-Aug-23 09:33N 36°27' E 014°04'1212.4
2016-Aug-23 08:33N 36°30' E 013°49'19813.0
2016-Aug-22 17:17N 37°31' E 009°53'50712.4
2016-Aug-21 00:23N 36°34' W 000°37'1112.7
2016-Aug-20 23:30N 36°31' W 000°51'1313.2
2016-Aug-20 22:32N 36°29' W 001°06'1413.5
2016-Aug-20 21:32N 36°26' W 001°23'2613.2
2016-Aug-20 19:33N 36°21' W 001°55'1312.9
2016-Aug-20 18:33N 36°19' W 002°10'1312.5
2016-Aug-20 17:31N 36°18' W 002°26'1212.8
2016-Aug-20 16:33N 36°16' W 002°42'1413.9
2016-Aug-20 15:33N 36°15' W 002°59'1414.0
2016-Aug-20 14:33N 36°13' W 003°16'9314.5
2016-Aug-20 08:10N 36°01' W 005°10'813.7
2016-Aug-20 07:34N 35°59' W 005°20'1915.4
2016-Aug-20 06:17N 35°55' W 005°43'1115.7
2016-Aug-20 05:33N 35°55' W 005°58'21911.4
2016-Aug-19 10:25N 37°44' W 009°55'1512.9
2016-Aug-19 09:15N 37°58' W 009°59'1113.0
2016-Aug-19 08:24N 38°09' W 010°02'1113.1
2016-Aug-19 07:34N 38°20' W 010°05'1313.0
2016-Aug-19 06:33N 38°33' W 010°09'1312.7
2016-Aug-19 05:33N 38°45' W 010°11'1712.9
2016-Aug-19 04:12N 39°03' W 010°12'912.5
2016-Aug-19 03:30N 39°12' W 010°12'1312.9
2016-Aug-19 02:30N 39°24' W 010°11'1212.8
2016-Aug-19 01:33N 39°37' W 010°12'1312.7
2016-Aug-19 00:33N 39°49' W 010°12'1912.7
2016-Aug-18 23:05N 40°08' W 010°11'1012.6
2016-Aug-18 22:19N 40°17' W 010°11'1012.4
2016-Aug-18 21:33N 40°27' W 010°12'51912.6
2016-Aug-17 04:29N 48°35' W 006°03'1212.0
2016-Aug-17 03:31N 48°45' W 005°55'1111.6
2016-Aug-17 02:33N 48°54' W 005°46'1111.3
2016-Aug-17 01:33N 49°00' W 005°31'1111.4
2016-Aug-17 00:33N 49°06' W 005°16'1212.4
2016-Aug-16 23:33N 49°12' W 005°00'1313.5
2016-Aug-16 22:33N 49°19' W 004°43'1414.2
2016-Aug-16 21:33N 49°27' W 004°24'1414.2
2016-Aug-16 20:34N 49°34' W 004°05'1313.5
2016-Aug-16 19:33N 49°41' W 003°47'1312.6
2016-Aug-16 18:33N 49°47' W 003°31'1211.8
2016-Aug-16 17:33N 49°53' W 003°15'1211.7
2016-Aug-16 16:33N 49°58' W 002°58'1212.4
2016-Aug-16 15:33N 50°02' W 002°40'1313.4
2016-Aug-16 14:33N 50°05' W 002°20'1514.8
2016-Aug-16 13:33N 50°09' W 001°57'1615.7
2016-Aug-16 12:33N 50°14' W 001°34'1615.9
2016-Aug-16 11:33N 50°18' W 001°10'1514.9
2016-Aug-16 10:34N 50°22' W 000°47'  

Dump ship's entire track history